Time;durP1;ratioP1;P1;durP2;ratioP2;P2;SDS_P1;SDS_P2;PMS_P1;PMS_P2;Temp;Humidity;BMP_temperature;BMP_pressure;BME280_temperature;BME280_humidity;BME280_pressure;Samples;Min_cycle;Max_cycle;Signal;HPM_P1;HPM_P2
2023/04/02 00:00:56;;;;;;;19.70;11.98;;;12.80;91.20;;;;;;5015220;28;20037;-67
2023/04/02 00:03:22;;;;;;;18.40;12.15;;;12.80;91.10;;;;;;5015037;28;20026;-68
2023/04/02 00:05:51;;;;;;;17.92;11.85;;;12.70;91.20;;;;;;5015091;28;20053;-67
2023/04/02 00:08:37;;;;;;;21.13;11.90;;;12.70;91.20;;;;;;5015006;28;20374;-67
2023/04/02 00:11:03;;;;;;;18.35;11.57;;;12.70;91.30;;;;;;5014346;28;20029;-67
2023/04/02 00:13:37;;;;;;;16.70;12.05;;;12.70;91.30;;;;;;5014877;28;20022;-67
2023/04/02 00:16:07;;;;;;;18.38;11.85;;;12.70;91.40;;;;;;5014744;28;20029;-67
2023/04/02 00:18:37;;;;;;;19.73;11.25;;;12.70;91.50;;;;;;5015019;28;20021;-67
2023/04/02 00:21:23;;;;;;;20.00;12.05;;;12.70;91.50;;;;;;5014422;28;20499;-67
2023/04/02 00:23:49;;;;;;;21.77;11.52;;;12.70;91.60;;;;;;5014806;28;20065;-67
2023/04/02 00:26:23;;;;;;;20.77;12.93;;;12.60;91.60;;;;;;5014752;28;20073;-67
2023/04/02 00:28:50;;;;;;;17.88;12.65;;;12.60;91.70;;;;;;5014613;28;20037;-67
2023/04/02 00:31:19;;;;;;;17.60;12.35;;;12.60;91.70;;;;;;5014687;28;20109;-67
2023/04/02 00:33:45;;;;;;;22.05;13.10;;;12.60;91.80;;;;;;5014535;28;20034;-67
2023/04/02 00:36:11;;;;;;;17.38;12.50;;;12.50;91.90;;;;;;5014314;28;20107;-67
2023/04/02 00:38:42;;;;;;;28.13;13.00;;;12.50;92.10;;;;;;5014590;28;20408;-67
2023/04/02 00:41:15;;;;;;;17.00;11.73;;;12.50;92.20;;;;;;5014605;28;20504;-67
2023/04/02 00:43:45;;;;;;;19.48;11.57;;;12.60;92.20;;;;;;5014480;28;20026;-67
2023/04/02 00:46:15;;;;;;;21.15;11.60;;;12.50;92.10;;;;;;5014421;28;20030;-67
2023/04/02 00:48:58;;;;;;;21.15;12.02;;;12.60;92.00;;;;;;5014428;28;20030;-67
2023/04/02 00:51:40;;;;;;;;;;;12.60;91.90;;;;;;5014725;28;20119;-67
2023/04/02 00:54:14;;;;;;;18.73;11.70;;;12.50;91.90;;;;;;5014181;28;19916;-67
2023/04/02 00:56:44;;;;;;;18.83;11.63;;;12.60;91.90;;;;;;5014068;28;20440;-67
2023/04/02 00:59:25;;;;;;;19.33;12.02;;;12.50;91.90;;;;;;5011703;28;20030;-66
2023/04/02 01:02:21;;;;;;;17.20;11.55;;;12.50;91.90;;;;;;5011419;28;20048;-67
2023/04/02 01:05:02;;;;;;;19.50;11.50;;;12.50;91.90;;;;;;5012845;28;20022;-67
2023/04/02 01:07:49;;;;;;;19.17;11.50;;;12.50;91.90;;;;;;5012804;28;20030;-67
2023/04/02 01:10:53;;;;;;;18.92;12.13;;;12.50;91.80;;;;;;5013855;28;20370;-67
2023/04/02 01:13:27;;;;;;;16.98;11.70;;;12.50;91.80;;;;;;5013504;28;20087;-67
2023/04/02 01:16:19;;;;;;;21.55;11.30;;;12.50;91.80;;;;;;5012289;28;20034;-67
2023/04/02 01:19:24;;;;;;;15.93;11.18;;;12.50;91.80;;;;;;5005232;28;20030;-67
2023/04/02 01:22:05;;;;;;;16.63;10.95;;;12.50;91.80;;;;;;5013316;28;20018;-67
2023/04/02 01:24:33;;;;;;;16.08;10.38;;;12.50;91.70;;;;;;5013846;28;20121;-67
2023/04/02 01:27:04;;;;;;;19.55;9.65;;;12.40;91.70;;;;;;5013757;28;20017;-67
2023/04/02 01:29:40;;;;;;;16.17;9.68;;;12.40;91.80;;;;;;5013583;28;20109;-67
2023/04/02 01:32:15;;;;;;;20.20;9.55;;;12.40;91.90;;;;;;5013612;28;20029;-67
2023/04/02 01:34:44;;;;;;;12.88;8.88;;;12.40;91.90;;;;;;5013652;28;20034;-67
2023/04/02 01:37:28;;;;;;;13.82;8.07;;;12.40;91.90;;;;;;5013166;28;20026;-67
2023/04/02 01:40:13;;;;;;;19.42;8.48;;;12.30;91.70;;;;;;5013415;28;20034;-67
2023/04/02 01:42:39;;;;;;;14.18;8.45;;;12.30;91.70;;;;;;5013233;28;20018;-67
2023/04/02 01:45:11;;;;;;;12.35;7.78;;;12.30;91.80;;;;;;5013244;28;20346;-67
2023/04/02 01:47:37;;;;;;;16.23;8.77;;;12.30;91.80;;;;;;5013315;28;20030;-67
2023/04/02 01:50:18;;;;;;;20.02;9.82;;;12.30;91.70;;;;;;5013358;28;20038;-67
2023/04/02 01:52:47;;;;;;;13.75;9.68;;;12.20;91.80;;;;;;5013451;28;20061;-67
2023/04/02 01:55:16;;;;;;;18.13;9.68;;;12.30;91.80;;;;;;5013035;28;20038;-67
2023/04/02 01:57:47;;;;;;;13.10;8.75;;;12.20;91.70;;;;;;5012923;28;20052;-67
2023/04/02 02:00:17;;;;;;;16.25;9.55;;;12.20;91.70;;;;;;5013309;28;20030;-67
2023/04/02 02:02:47;;;;;;;15.68;9.90;;;12.20;91.70;;;;;;5013190;28;20084;-67
2023/04/02 02:05:15;;;;;;;18.20;10.70;;;12.20;91.70;;;;;;5013228;28;20183;-67
2023/04/02 02:07:41;;;;;;;21.08;12.23;;;12.20;91.70;;;;;;5012997;28;20037;-67
2023/04/02 02:10:15;;;;;;;21.65;11.77;;;12.10;91.60;;;;;;5013051;28;20037;-67
2023/04/02 02:12:43;;;;;;;17.52;12.07;;;12.10;91.50;;;;;;5013096;28;20105;-67
2023/04/02 02:15:21;;;;;;;21.35;12.15;;;12.10;91.60;;;;;;5013025;28;20034;-67
2023/04/02 02:17:47;;;;;;;20.30;12.23;;;12.00;91.60;;;;;;5013204;28;20044;-67
2023/04/02 02:20:14;;;;;;;16.90;12.38;;;12.00;91.70;;;;;;5012638;28;20430;-67
2023/04/02 02:22:48;;;;;;;17.48;11.95;;;12.00;91.80;;;;;;5011659;28;20373;-67
2023/04/02 02:25:17;;;;;;;17.60;11.40;;;11.90;91.80;;;;;;5013119;28;20026;-67
2023/04/02 02:28:09;;;;;;;16.38;11.48;;;11.90;91.90;;;;;;5012962;28;20029;-67
2023/04/02 02:30:46;;;;;;;19.45;11.82;;;11.90;91.90;;;;;;5005834;28;20080;-67
2023/04/02 02:33:37;;;;;;;17.17;11.95;;;11.90;91.90;;;;;;5013057;28;20018;-67
2023/04/02 02:36:21;;;;;;;19.45;11.45;;;11.80;91.90;;;;;;5016031;28;20061;-67
2023/04/02 02:39:02;;;;;;;18.77;12.02;;;11.80;91.80;;;;;;5016861;28;20033;-67
2023/04/02 02:41:46;;;;;;;18.55;11.90;;;11.70;92.00;;;;;;5016837;28;20038;-67
2023/04/02 02:44:41;;;;;;;14.57;11.68;;;11.70;92.10;;;;;;5016604;28;20029;-67
2023/04/02 02:47:18;;;;;;;17.13;11.48;;;11.70;92.20;;;;;;5014553;28;20093;-67
2023/04/02 02:49:51;;;;;;;19.10;12.40;;;11.70;92.30;;;;;;5016528;28;20070;-67
2023/04/02 02:52:20;;;;;;;16.90;11.35;;;11.60;92.40;;;;;;5016528;28;20050;-67
2023/04/02 02:54:51;;;;;;;16.08;11.32;;;11.60;92.30;;;;;;5016469;28;20092;-67
2023/04/02 02:57:26;;;;;;;19.17;11.23;;;11.60;92.30;;;;;;5016599;28;20508;-67
2023/04/02 02:59:55;;;;;;;14.73;11.15;;;11.60;92.30;;;;;;5016528;28;20482;-67
2023/04/02 03:02:23;;;;;;;19.13;11.55;;;11.60;92.30;;;;;;5016364;28;20108;-67
2023/04/02 03:04:51;;;;;;;17.70;11.10;;;11.50;92.40;;;;;;5016303;28;20022;-67
2023/04/02 03:07:20;;;;;;;18.27;11.68;;;11.50;92.40;;;;;;5016132;28;20061;-67
2023/04/02 03:10:02;;;;;;;20.88;12.57;;;11.50;92.40;;;;;;5016239;28;20485;-67
2023/04/02 03:12:58;;;;;;;18.05;11.57;;;11.50;92.50;;;;;;5016505;28;20052;-67
2023/04/02 03:15:41;;;;;;;17.58;12.13;;;11.50;92.60;;;;;;5015897;28;20030;-67
2023/04/02 03:18:13;;;;;;;19.85;12.07;;;11.50;92.60;;;;;;5015830;28;20421;-67
2023/04/02 03:21:25;;;;;;;15.50;11.38;;;11.50;92.60;;;;;;5015729;28;20512;-67
2023/04/02 03:24:01;;;;;;;20.25;12.25;;;11.50;92.60;;;;;;5011578;28;20478;-67
2023/04/02 03:26:39;;;;;;;18.83;12.68;;;11.50;92.60;;;;;;5015900;28;20025;-67
2023/04/02 03:29:28;;;;;;;17.50;11.57;;;11.40;92.60;;;;;;5015764;28;20058;-67
2023/04/02 03:32:06;;;;;;;18.50;12.02;;;11.40;92.70;;;;;;5015794;28;20026;-67
2023/04/02 03:34:41;;;;;;;16.70;11.82;;;11.40;92.70;;;;;;5015693;28;20037;-67
2023/04/02 03:37:27;;;;;;;23.77;12.13;;;11.40;92.80;;;;;;5015461;28;20025;-67
2023/04/02 03:40:14;;;;;;;17.65;11.48;;;11.40;92.80;;;;;;5015572;28;20489;-67
2023/04/02 03:42:54;;;;;;;23.58;12.15;;;11.40;92.80;;;;;;5015771;28;20049;-66
2023/04/02 03:45:28;;;;;;;19.02;10.25;;;11.40;92.80;;;;;;5015287;28;20030;-67
2023/04/02 03:48:03;;;;;;;14.65;9.95;;;11.40;92.80;;;;;;5014461;28;20021;-67
2023/04/02 03:51:03;;;;;;;17.13;10.73;;;11.30;92.80;;;;;;5015097;28;20045;-67
2023/04/02 03:53:31;;;;;;;13.80;10.32;;;11.30;92.80;;;;;;5014902;28;20050;-67
2023/04/02 03:55:58;;;;;;;16.95;10.73;;;11.30;92.90;;;;;;5015309;28;20064;-67
2023/04/02 03:58:33;;;;;;;14.60;10.48;;;11.30;93.00;;;;;;5015306;28;20075;-67
2023/04/02 04:01:27;;;;;;;17.25;10.82;;;11.30;93.10;;;;;;5015270;28;20029;-67
2023/04/02 04:04:04;;;;;;;17.20;11.43;;;11.30;93.10;;;;;;5015239;28;20026;-67
2023/04/02 04:06:35;;;;;;;16.02;10.88;;;11.30;93.20;;;;;;5014987;28;20053;-67
2023/04/02 04:09:23;;;;;;;19.58;12.05;;;11.30;93.20;;;;;;5015042;28;20032;-67
2023/04/02 04:11:52;;;;;;;20.05;10.52;;;11.30;93.20;;;;;;5015121;28;20076;-67
2023/04/02 04:14:33;;;;;;;17.08;10.77;;;11.30;93.20;;;;;;5014583;28;20045;-67
2023/04/02 04:17:08;;;;;;;19.58;11.30;;;11.30;93.30;;;;;;5014906;28;20081;-67
2023/04/02 04:19:47;;;;;;;17.23;10.75;;;11.30;93.30;;;;;;5014820;28;20026;-67
2023/04/02 04:22:29;;;;;;;15.73;11.13;;;11.30;93.30;;;;;;5014843;28;20109;-67
2023/04/02 04:25:00;;;;;;;14.15;10.18;;;11.30;93.30;;;;;;5014572;28;20088;-66
2023/04/02 04:28:07;;;;;;;16.52;10.52;;;11.30;93.20;;;;;;5014916;28;20022;-67
2023/04/02 04:30:49;;;;;;;15.18;10.85;;;11.30;93.20;;;;;;4954183;29;20035;-67
2023/04/02 04:33:25;;;;;;;18.23;10.75;;;11.20;93.20;;;;;;5010280;28;20117;-67
2023/04/02 04:35:57;;;;;;;15.10;9.85;;;11.20;93.20;;;;;;5014381;28;20120;-67
2023/04/02 04:38:38;;;;;;;18.42;10.10;;;11.20;93.30;;;;;;5013308;28;20018;-67
2023/04/02 04:41:16;;;;;;;17.48;9.57;;;11.20;93.40;;;;;;5014320;28;20025;-67
2023/04/02 04:43:57;;;;;;;14.63;10.27;;;11.30;93.50;;;;;;5014265;28;20486;-67
2023/04/02 04:46:39;;;;;;;16.33;11.48;;;11.20;93.40;;;;;;5014450;28;20022;-67
2023/04/02 04:49:11;;;;;;;18.20;10.77;;;11.20;93.40;;;;;;5014372;28;20033;-67
2023/04/02 04:51:47;;;;;;;16.58;10.07;;;11.20;93.40;;;;;;5014224;28;20489;-67
2023/04/02 04:54:15;;;;;;;18.10;11.07;;;11.20;93.30;;;;;;5014036;28;20037;-67
2023/04/02 04:56:47;;;;;;;15.68;11.07;;;11.20;93.30;;;;;;5014228;28;20025;-67
2023/04/02 04:59:24;;;;;;;18.33;9.85;;;11.20;93.40;;;;;;5013959;28;20409;-67
2023/04/02 05:02:04;;;;;;;12.05;9.70;;;11.20;93.40;;;;;;5014167;28;20045;-67
2023/04/02 05:04:39;;;;;;;16.55;10.10;;;11.20;93.30;;;;;;5014246;28;20059;-67
2023/04/02 05:07:18;;;;;;;18.23;10.75;;;11.20;93.20;;;;;;5014151;28;20030;-67
2023/04/02 05:09:58;;;;;;;13.20;10.27;;;11.20;93.40;;;;;;5013976;28;20053;-66
2023/04/02 05:12:33;;;;;;;13.02;9.93;;;11.20;93.40;;;;;;5013527;28;20022;-67
2023/04/02 05:15:28;;;;;;;12.13;9.93;;;11.20;93.40;;;;;;5013725;28;20132;-67
2023/04/02 05:18:00;;;;;;;14.52;8.85;;;11.20;93.40;;;;;;5008655;28;20140;-67
2023/04/02 05:20:31;;;;;;;15.07;9.70;;;11.20;93.40;;;;;;5013790;28;20059;-67
2023/04/02 05:23:05;;;;;;;14.17;9.13;;;11.20;93.10;;;;;;5013480;28;20080;-67
2023/04/02 05:25:31;;;;;;;14.45;9.50;;;11.10;93.20;;;;;;5012199;28;20065;-67
2023/04/02 05:27:57;;;;;;;11.45;9.20;;;11.10;93.40;;;;;;5013684;28;20045;-67
2023/04/02 05:30:23;;;;;;;16.17;8.20;;;11.10;93.60;;;;;;5013626;28;20061;-67
2023/04/02 05:33:17;;;;;;;11.60;8.65;;;11.10;93.70;;;;;;5013573;28;20022;-67
2023/04/02 05:35:48;;;;;;;15.32;9.13;;;11.10;93.80;;;;;;5002601;28;20049;-67
2023/04/02 05:38:21;;;;;;;11.50;8.52;;;11.20;93.80;;;;;;5013427;28;20053;-67
2023/04/02 05:40:53;;;;;;;15.70;8.63;;;11.20;93.90;;;;;;5013496;28;20381;-67
2023/04/02 05:43:23;;;;;;;14.90;7.72;;;11.20;93.80;;;;;;5013245;28;20022;-66
2023/04/02 05:45:56;;;;;;;15.95;8.48;;;11.20;93.80;;;;;;5012092;28;20028;-67
2023/04/02 05:48:42;;;;;;;;;;;11.20;93.80;;;;;;5013331;28;20079;-66
2023/04/02 05:51:15;;;;;;;13.10;7.80;;;11.30;93.90;;;;;;5013080;28;19963;-67
2023/04/02 05:53:48;;;;;;;10.88;7.50;;;11.20;93.80;;;;;;5012888;28;20025;-66
2023/04/02 05:56:21;;;;;;;;;;;11.30;93.80;;;;;;5013365;28;20030;-67
2023/04/02 05:58:48;;;;;;;;;;;11.30;93.80;;;;;;5013741;28;20435;-67
2023/04/02 06:01:57;;;;;;;11.70;7.10;;;11.30;93.80;;;;;;5012788;28;19996;-67
2023/04/02 06:04:40;;;;;;;12.88;7.60;;;11.30;93.70;;;;;;5007679;28;20038;-67
2023/04/02 06:07:20;;;;;;;13.05;7.85;;;11.30;93.80;;;;;;5013021;28;20022;-67
2023/04/02 06:09:52;;;;;;;11.70;7.55;;;11.30;93.90;;;;;;5012339;28;20490;-67
2023/04/02 06:12:22;;;;;;;14.50;7.22;;;11.30;94.00;;;;;;5013004;28;20018;-67
2023/04/02 06:14:48;;;;;;;13.88;8.55;;;11.30;94.10;;;;;;5012820;28;20038;-67
2023/04/02 06:17:16;;;;;;;11.75;8.13;;;11.40;94.20;;;;;;5012678;28;20115;-67
2023/04/02 06:19:42;;;;;;;16.10;8.85;;;11.40;94.30;;;;;;5012447;28;20030;-67
2023/04/02 06:22:23;;;;;;;12.13;7.95;;;11.40;94.30;;;;;;5012819;28;20108;-67
2023/04/02 06:25:02;;;;;;;17.63;9.23;;;11.40;94.30;;;;;;5012979;28;20036;-68
2023/04/02 06:27:29;;;;;;;16.30;9.15;;;11.50;94.30;;;;;;5012714;28;20501;-67
2023/04/02 06:30:01;;;;;;;22.15;10.38;;;11.50;94.30;;;;;;5012861;28;20118;-67
2023/04/02 06:32:27;;;;;;;23.17;10.30;;;11.50;94.40;;;;;;5012557;28;20029;-67
2023/04/02 06:34:53;;;;;;;18.80;8.93;;;11.50;94.50;;;;;;5012375;28;20037;-67
2023/04/02 06:37:21;;;;;;;19.95;9.43;;;11.60;94.50;;;;;;5012453;28;20105;-67
2023/04/02 06:39:47;;;;;;;19.90;9.02;;;11.60;94.40;;;;;;5012565;28;20030;-67
2023/04/02 06:42:28;;;;;;;12.93;8.25;;;11.60;94.50;;;;;;5012565;28;20053;-67
2023/04/02 06:44:54;;;;;;;9.73;7.53;;;11.70;94.60;;;;;;5012300;28;20030;-66
2023/04/02 06:47:49;;;;;;;17.02;8.68;;;11.70;94.70;;;;;;5012574;28;20040;-67
2023/04/02 06:50:30;;;;;;;22.58;9.18;;;11.70;94.70;;;;;;5010338;28;20376;-67
2023/04/02 06:53:00;;;;;;;21.27;9.48;;;11.80;94.80;;;;;;5012324;28;20041;-66
2023/04/02 06:55:40;;;;;;;19.05;8.20;;;11.80;94.80;;;;;;5012443;28;20542;-67
2023/04/02 06:58:08;;;;;;;15.73;8.70;;;11.80;94.80;;;;;;5012810;28;20097;-66
2023/04/02 07:00:37;;;;;;;15.93;8.82;;;11.90;94.80;;;;;;5012885;28;20351;-67
2023/04/02 07:03:11;;;;;;;16.38;8.45;;;12.00;94.80;;;;;;5013381;28;20025;-67
2023/04/02 07:05:37;;;;;;;12.43;8.23;;;12.00;94.70;;;;;;5012783;28;20034;-67
2023/04/02 07:08:03;;;;;;;10.70;7.78;;;12.00;94.60;;;;;;5015229;28;20026;-67
2023/04/02 07:10:28;;;;;;;11.30;7.15;;;12.10;94.60;;;;;;5013707;28;20030;-67
2023/04/02 07:12:54;;;;;;;10.98;7.28;;;12.10;94.50;;;;;;5011932;28;20029;-66
2023/04/02 07:15:22;;;;;;;10.00;7.35;;;12.20;94.40;;;;;;5012039;28;20034;-67
2023/04/02 07:17:48;;;;;;;10.32;7.75;;;12.20;94.30;;;;;;5012013;28;20101;-66
2023/04/02 07:20:32;;;;;;;11.90;7.60;;;12.20;94.20;;;;;;5012182;28;20117;-67
2023/04/02 07:22:58;;;;;;;10.73;7.53;;;12.20;94.30;;;;;;5014254;28;20034;-66
2023/04/02 07:25:25;;;;;;;10.15;7.47;;;12.30;94.30;;;;;;5012849;28;20029;-65
2023/04/02 07:27:52;;;;;;;12.70;7.68;;;12.30;94.30;;;;;;5012777;28;20042;-66
2023/04/02 07:30:18;;;;;;;13.02;8.77;;;12.30;94.30;;;;;;5014767;28;20049;-66
2023/04/02 07:32:44;;;;;;;13.18;7.38;;;12.40;94.40;;;;;;5015430;28;20485;-66
2023/04/02 07:35:10;;;;;;;23.05;6.35;;;12.40;94.50;;;;;;5015397;28;20045;-66
2023/04/02 07:37:37;;;;;;;14.23;7.32;;;12.40;94.40;;;;;;5014861;28;20029;-66
2023/04/02 07:40:05;;;;;;;11.55;7.20;;;12.50;94.30;;;;;;5015272;28;20104;-65
2023/04/02 07:42:31;;;;;;;14.07;7.88;;;12.50;94.30;;;;;;5015076;28;20029;-66
2023/04/02 07:44:56;;;;;;;12.15;7.50;;;12.60;94.40;;;;;;5014373;28;20045;-66
2023/04/02 07:47:22;;;;;;;11.50;6.93;;;12.60;94.40;;;;;;5015145;28;20208;-66
2023/04/02 07:49:48;;;;;;;11.38;7.85;;;12.70;94.50;;;;;;5015224;28;20116;-66
2023/04/02 07:52:14;;;;;;;13.10;8.32;;;12.70;94.40;;;;;;5015352;28;20049;-67
2023/04/02 07:54:40;;;;;;;14.57;7.90;;;12.80;94.30;;;;;;5012206;28;20041;-66
2023/04/02 07:57:05;;;;;;;14.85;8.55;;;12.90;94.40;;;;;;5012424;28;20026;-67
2023/04/02 07:59:31;;;;;;;11.57;7.35;;;12.90;94.40;;;;;;5012801;28;20087;-66
2023/04/02 08:01:57;;;;;;;13.02;7.68;;;12.90;94.20;;;;;;5014955;28;20025;-67
2023/04/02 08:04:23;;;;;;;10.40;7.85;;;13.00;94.00;;;;;;5015084;28;20084;-67
2023/04/02 08:06:49;;;;;;;12.80;7.00;;;13.00;93.90;;;;;;5014407;28;20030;-67
2023/04/02 08:09:16;;;;;;;13.70;7.43;;;13.00;93.70;;;;;;5014587;28;20034;-67
2023/04/02 08:11:42;;;;;;;9.85;7.70;;;13.00;93.60;;;;;;5014678;28;20037;-67
2023/04/02 08:14:08;;;;;;;14.38;7.30;;;13.00;93.70;;;;;;5014485;28;20394;-66
2023/04/02 08:16:43;;;;;;;14.38;7.95;;;13.10;93.80;;;;;;5014950;28;20030;-67
2023/04/02 08:19:09;;;;;;;9.68;7.32;;;13.10;93.70;;;;;;5014641;28;20038;-68
2023/04/02 08:21:35;;;;;;;11.80;7.25;;;13.10;93.60;;;;;;5014653;28;20094;-67
2023/04/02 08:24:02;;;;;;;9.05;6.60;;;13.20;93.70;;;;;;5014533;28;20486;-67
2023/04/02 08:26:28;;;;;;;10.85;6.68;;;13.20;93.70;;;;;;5014040;28;20389;-67
2023/04/02 08:28:54;;;;;;;12.98;6.65;;;13.20;93.70;;;;;;5013779;28;20030;-67
2023/04/02 08:31:19;;;;;;;9.93;6.40;;;13.30;93.50;;;;;;5014219;28;20025;-68
2023/04/02 08:33:45;;;;;;;10.45;5.50;;;13.30;93.30;;;;;;5010963;28;20125;-67
2023/04/02 08:36:16;;;;;;;11.93;5.53;;;13.40;93.30;;;;;;4997118;28;20030;-67
2023/04/02 08:38:41;;;;;;;9.63;5.55;;;13.40;92.80;;;;;;5012391;28;20485;-67
2023/04/02 08:41:13;;;;;;;11.98;6.03;;;13.40;92.80;;;;;;5014048;28;20033;-67
2023/04/02 08:43:39;;;;;;;8.90;5.65;;;13.50;92.60;;;;;;5002235;28;20309;-67
2023/04/02 08:46:17;;;;;;;8.43;5.68;;;13.50;92.70;;;;;;4994762;28;20060;-67
2023/04/02 08:48:54;;;;;;;9.63;5.60;;;13.60;92.50;;;;;;4994928;28;20074;-67
2023/04/02 08:51:29;;;;;;;12.32;4.57;;;13.70;92.40;;;;;;4994504;28;20061;-66
2023/04/02 08:54:07;;;;;;;7.88;4.35;;;13.70;92.20;;;;;;4994389;28;20030;-67
2023/04/02 08:56:39;;;;;;;11.40;4.55;;;13.80;91.90;;;;;;4994445;28;20112;-67
2023/04/02 08:59:26;;;;;;;5.68;4.10;;;13.80;91.60;;;;;;4991922;28;20105;-66
2023/04/02 09:02:11;;;;;;;7.65;4.50;;;13.80;91.60;;;;;;5004022;28;20117;-67
2023/04/02 09:04:39;;;;;;;8.25;3.97;;;13.90;91.50;;;;;;5012150;28;20500;-67
2023/04/02 09:07:05;;;;;;;10.13;3.92;;;14.00;91.20;;;;;;5013442;28;20393;-67
2023/04/02 09:09:36;;;;;;;12.57;3.50;;;14.00;91.20;;;;;;5013350;28;20101;-67
2023/04/02 09:12:03;;;;;;;9.73;3.92;;;14.00;91.30;;;;;;5013404;28;20018;-67
2023/04/02 09:15:06;;;;;;;7.72;3.67;;;14.10;91.10;;;;;;5012945;28;20046;-67
2023/04/02 09:17:32;;;;;;;;;;;14.10;90.40;;;;;;5014039;28;20037;-67
2023/04/02 09:20:00;;;;;;;9.05;3.97;;;14.20;90.30;;;;;;5013746;28;19909;-67
2023/04/02 09:22:31;;;;;;;8.10;3.58;;;14.20;90.40;;;;;;5012539;28;20388;-67
2023/04/02 09:24:59;;;;;;;5.63;3.70;;;14.30;90.60;;;;;;5013538;28;20062;-67
2023/04/02 09:27:28;;;;;;;6.28;3.30;;;14.30;90.40;;;;;;5013300;28;20026;-67
2023/04/02 09:30:02;;;;;;;5.88;2.88;;;14.40;90.30;;;;;;5011985;28;20038;-67
2023/04/02 09:32:50;;;;;;;6.45;2.97;;;14.50;89.70;;;;;;5013353;28;20026;-67
2023/04/02 09:35:22;;;;;;;3.35;1.80;;;14.50;88.60;;;;;;5012841;28;20034;-67
2023/04/02 09:38:17;;;;;;;5.37;1.93;;;14.70;87.60;;;;;;5013247;28;20026;-67
2023/04/02 09:41:00;;;;;;;3.88;1.70;;;14.80;86.50;;;;;;5011650;28;20261;-67
2023/04/02 09:43:28;;;;;;;4.68;1.55;;;14.90;85.40;;;;;;5012879;28;20037;-67
2023/04/02 09:46:12;;;;;;;4.97;1.70;;;15.00;84.60;;;;;;5012902;28;20037;-67
2023/04/02 09:48:45;;;;;;;2.20;1.33;;;15.20;83.60;;;;;;5013248;28;20036;-67
2023/04/02 09:51:13;;;;;;;4.00;1.70;;;15.20;81.30;;;;;;5013250;28;20048;-67
2023/04/02 09:54:00;;;;;;;3.35;1.35;;;15.30;80.10;;;;;;5013421;28;20026;-67
2023/04/02 09:56:26;;;;;;;3.60;1.27;;;15.40;77.50;;;;;;5005116;28;20042;-67
2023/04/02 09:59:24;;;;;;;3.83;1.23;;;15.40;76.90;;;;;;5012393;28;20056;-67
2023/04/02 10:01:53;;;;;;;5.45;1.38;;;15.50;76.80;;;;;;4990947;28;20080;-67
2023/04/02 10:04:46;;;;;;;2.92;1.27;;;15.50;76.80;;;;;;5013268;28;20026;-67
2023/04/02 10:07:38;;;;;;;5.20;1.42;;;15.50;75.60;;;;;;5013129;28;20370;-67
2023/04/02 10:10:27;;;;;;;6.05;1.85;;;15.50;74.30;;;;;;5013120;28;20022;-67
2023/04/02 10:13:17;;;;;;;2.55;1.55;;;15.60;74.80;;;;;;5012994;28;20466;-67
2023/04/02 10:15:49;;;;;;;3.22;1.60;;;15.60;74.80;;;;;;4993176;28;20046;-67
2023/04/02 10:18:29;;;;;;;3.22;1.30;;;15.60;75.70;;;;;;5012993;28;20381;-67
2023/04/02 10:20:56;;;;;;;2.08;1.10;;;15.70;76.00;;;;;;5012986;28;20022;-67
2023/04/02 10:23:26;;;;;;;2.63;1.30;;;15.70;74.90;;;;;;5013316;28;20397;-67
2023/04/02 10:26:10;;;;;;;2.90;1.30;;;15.70;73.30;;;;;;5013120;28;20080;-67
2023/04/02 10:28:37;;;;;;;2.85;1.23;;;15.70;72.70;;;;;;5013040;28;20064;-67
2023/04/02 10:31:10;;;;;;;2.90;0.90;;;15.80;72.70;;;;;;5012782;28;20024;-67
2023/04/02 10:33:37;;;;;;;2.50;1.13;;;15.80;72.30;;;;;;5012903;28;20034;-67
2023/04/02 10:36:15;;;;;;;2.75;1.08;;;15.80;71.40;;;;;;5012950;28;20034;-67
2023/04/02 10:38:54;;;;;;;2.75;1.00;;;15.90;70.70;;;;;;5013017;28;20033;-67
2023/04/02 10:41:24;;;;;;;3.65;0.90;;;15.90;69.90;;;;;;5012769;28;20040;-67
2023/04/02 10:43:58;;;;;;;2.55;0.98;;;16.00;69.40;;;;;;5027915;28;20376;-67
2023/04/02 10:46:34;;;;;;;4.20;1.00;;;16.00;68.50;;;;;;5012747;28;20504;-67
2023/04/02 10:49:04;;;;;;;1.58;0.50;;;16.10;68.00;;;;;;5012996;28;20061;-67
2023/04/02 10:51:33;;;;;;;0.88;0.63;;;16.20;67.50;;;;;;5012570;28;20149;-67
2023/04/02 10:54:16;;;;;;;0.80;0.55;;;16.30;65.80;;;;;;5012425;28;20113;-67
2023/04/02 10:56:43;;;;;;;1.40;0.73;;;16.40;65.70;;;;;;5015046;28;20036;-67
2023/04/02 10:59:33;;;;;;;2.17;1.55;;;16.50;66.20;;;;;;5013733;28;20022;-68
2023/04/02 11:02:05;;;;;;;1.55;0.55;;;16.70;65.00;;;;;;5013368;28;20053;-68
2023/04/02 11:04:43;;;;;;;0.82;0.50;;;16.80;62.70;;;;;;5015710;28;20022;-67
2023/04/02 11:07:25;;;;;;;0.47;0.20;;;16.90;62.50;;;;;;5016105;28;20045;-67
2023/04/02 11:09:55;;;;;;;0.93;0.30;;;16.90;60.70;;;;;;5014598;28;20069;-67
2023/04/02 11:12:35;;;;;;;0.40;0.28;;;17.00;59.80;;;;;;5015718;28;20430;-67
2023/04/02 11:15:01;;;;;;;8.40;0.38;;;17.00;58.40;;;;;;5016124;28;20401;-67
2023/04/02 11:17:27;;;;;;;0.70;0.50;;;17.00;57.20;;;;;;5014518;28;20069;-67
2023/04/02 11:19:55;;;;;;;0.55;0.30;;;17.10;56.90;;;;;;5013409;28;20105;-67
2023/04/02 11:22:24;;;;;;;0.65;0.30;;;17.10;56.90;;;;;;5013471;28;20044;-68
2023/04/02 11:24:51;;;;;;;0.52;0.35;;;17.20;56.40;;;;;;5013350;28;20053;-67
2023/04/02 11:27:29;;;;;;;0.63;0.30;;;17.20;55.50;;;;;;5013669;28;20385;-68
2023/04/02 11:30:04;;;;;;;1.63;0.50;;;17.20;53.50;;;;;;5015293;28;20087;-67
2023/04/02 11:32:33;;;;;;;1.17;0.60;;;17.20;54.30;;;;;;5015188;28;20030;-68
2023/04/02 11:35:31;;;;;;;1.30;0.50;;;17.30;55.80;;;;;;5015339;28;20038;-66
2023/04/02 11:38:18;;;;;;;1.73;0.73;;;17.30;55.50;;;;;;5015424;28;20522;-67
2023/04/02 11:40:47;;;;;;;0.80;0.50;;;17.50;56.40;;;;;;5011951;28;20049;-67
2023/04/02 11:43:34;;;;;;;0.70;0.40;;;17.80;54.70;;;;;;5005386;28;20485;-67
2023/04/02 11:46:15;;;;;;;2.92;0.40;;;18.00;54.20;;;;;;5013052;28;20018;-67
2023/04/02 11:48:42;;;;;;;0.98;0.32;;;18.10;53.70;;;;;;5015061;28;20026;-67
2023/04/02 11:51:30;;;;;;;0.47;0.22;;;18.20;54.60;;;;;;5014710;28;20417;-67
2023/04/02 11:53:59;;;;;;;2.17;1.00;;;18.30;54.50;;;;;;5008880;28;20041;-67
2023/04/02 11:56:58;;;;;;;4.25;0.55;;;18.30;54.00;;;;;;5014752;28;20029;-67
2023/04/02 11:59:45;;;;;;;1.75;0.30;;;18.50;51.50;;;;;;5014384;28;20152;-67
2023/04/02 12:02:30;;;;;;;0.47;0.20;;;18.70;51.40;;;;;;5014942;28;20029;-67
2023/04/02 12:05:25;;;;;;;0.65;0.30;;;18.70;52.30;;;;;;5014676;28;20021;-66
2023/04/02 12:08:07;;;;;;;0.82;0.50;;;18.90;52.20;;;;;;5004694;28;20038;-67
2023/04/02 12:10:51;;;;;;;0.60;0.40;;;19.00;52.10;;;;;;5014949;28;20044;-68
2023/04/02 12:13:19;;;;;;;1.50;0.68;;;19.10;51.50;;;;;;5014894;28;20355;-67
2023/04/02 12:15:46;;;;;;;0.80;0.52;;;19.10;52.40;;;;;;5014627;28;20045;-67
2023/04/02 12:18:20;;;;;;;3.08;0.50;;;19.10;50.30;;;;;;5014728;28;20029;-67
2023/04/02 12:20:52;;;;;;;0.70;0.50;;;19.10;51.20;;;;;;5014343;28;20081;-67
2023/04/02 12:23:21;;;;;;;0.45;0.30;;;19.20;51.20;;;;;;5014216;28;20033;-67
2023/04/02 12:25:55;;;;;;;0.50;0.40;;;19.20;52.90;;;;;;5029774;28;20442;-67
2023/04/02 12:28:22;;;;;;;1.05;0.40;;;19.40;51.40;;;;;;5014463;28;20390;-68
2023/04/02 12:30:50;;;;;;;2.00;0.22;;;19.50;51.10;;;;;;5014167;28;20382;-68
2023/04/02 12:33:16;;;;;;;0.70;0.22;;;19.60;50.50;;;;;;5014295;28;20048;-67
2023/04/02 12:35:44;;;;;;;0.45;0.35;;;19.70;50.70;;;;;;5014106;28;20474;-67
2023/04/02 12:38:43;;;;;;;1.02;0.40;;;19.70;47.60;;;;;;5014045;28;20033;-67
2023/04/02 12:41:26;;;;;;;2.97;0.40;;;19.90;48.70;;;;;;5013967;28;20026;-67
2023/04/02 12:44:05;;;;;;;1.63;0.45;;;20.00;48.80;;;;;;5013891;28;20022;-66
2023/04/02 12:46:33;;;;;;;2.05;0.50;;;20.10;47.10;;;;;;5014028;28;20385;-66
2023/04/02 12:49:28;;;;;;;2.13;0.45;;;20.10;47.50;;;;;;5014115;28;20030;-67
2023/04/02 12:51:55;;;;;;;0.82;0.60;;;20.00;48.50;;;;;;5011760;28;20096;-66
2023/04/02 12:54:21;;;;;;;0.77;0.43;;;20.00;47.10;;;;;;4999293;28;20070;-67
2023/04/02 12:56:48;;;;;;;2.13;0.40;;;20.00;48.10;;;;;;4994090;28;20026;-67
2023/04/02 12:59:33;;;;;;;1.33;0.60;;;19.90;48.10;;;;;;4994262;28;20037;-67
2023/04/02 13:02:01;;;;;;;0.60;0.40;;;19.90;47.60;;;;;;4994294;28;20021;-66
2023/04/02 13:04:27;;;;;;;0.73;0.45;;;19.80;49.00;;;;;;4994211;28;20022;-67
2023/04/02 13:06:54;;;;;;;1.38;0.40;;;19.80;49.70;;;;;;4993929;28;20110;-67
2023/04/02 13:09:34;;;;;;;0.45;0.30;;;19.80;50.70;;;;;;4994042;28;20054;-67
2023/04/02 13:12:01;;;;;;;1.08;0.35;;;19.80;49.20;;;;;;5001563;28;20033;-66
2023/04/02 13:14:28;;;;;;;0.93;0.50;;;19.80;48.70;;;;;;5001924;28;20049;-68
2023/04/02 13:16:55;;;;;;;2.00;0.52;;;19.80;50.40;;;;;;5004007;28;20022;-67